x

South Kodiak - 310nm Ssw Of Kodiak, Ak (46066) Wave Buoy

9:50am - Thu 2nd Apr 2015 All times are UTC.

  • Sig Wave height 14.4ft
  • Swell Direction
  • Peak Period 10s
  • Average Period 7s
  • Wind
    29mph, 36mph gusts
  • Sea Temp 41°f
  • Air Temp 40°f
  • Sea Pressure 1015mb

More Historic Weather Station data

Upgrade to MSW Pro to gain access to the past 30 days of data for over 8000 Wavebouys and Weather Stations around the globe.

Join Pro

Comparision Forecast

View Surf forecast
   
Thu 04/02 9:50am 14.5ft 10s 7s 29 36 mph 1015mb 41f 40f
8:50am 14.5ft 9s 7s 29 36 mph 1014.3mb 41f 39f
7:50am 16ft 9s 8s 31 38 mph 1013.5mb 41f 39f
6:50am 17ft 11s 8s 31 38 mph 1012.7mb 41f 39f
5:50am 16ft 11s 8s 31 38 mph 1011.5mb 41f 40f
4:50am 17ft 11s 8s 34 43 mph 1009.9mb 41f 41f
3:50am 14.5ft 11s 7s 34 43 mph 1008.8mb 41f 40f
2:50am 13ft 11s 7s 36 43 mph 1007.5mb 41f 39f
1:50am 12.5ft 12s 7s 34 40 mph 1006.1mb 41f 38f
12:50am 10.5ft 11s 7s 34 43 mph 1004.6mb 41f 40f
Wed 04/01 11:50pm 11ft 12s 8s 22 25 mph 1004mb 41f 38f
10:50pm 10.5ft 12s 8s 22 27 mph 1003.9mb 41f 40f
9:50pm 12ft 13s 9s 18 22 mph 1003.4mb 41f 40f
8:50pm 13.5ft 12s 9s 20 25 mph 1002.5mb 41f 39f
7:50pm 15ft 13s 9s 20 25 mph 1001.1mb 40f 39f
6:50pm 15.5ft 11s 9s 18 22 mph 999.6mb 40f 38f
5:50pm 15ft 14s 9s 22 29 mph 997.5mb 40f 37f
4:50pm 18ft 12s 9s 9 13 mph 996.2mb 40f 39f
3:50pm 16.5ft 12s 9s 7 11 mph 995.5mb 40f 38f
2:50pm 15.5ft 14s 9s 9 13 mph 995.2mb 40f 39f
1:50pm 13.5ft 11s 8s 20 25 mph 995.4mb 40f 38f
12:50pm 10.5ft 11s 7s 20 25 mph 996.6mb 40f 37f
11:50am 9.5ft 10s 7s 20 25 mph 997.3mb 41f 39f
10:50am 10ft 9s 7s 16 20 mph 998.3mb 41f 39f
9:50am 9ft 10s 7s 20 22 mph 999mb 41f 39f
8:50am 9.5ft 8s 7s 25 31 mph 999.5mb 41f 40f
7:50am 10.5ft 8s 7s 20 25 mph 1000.2mb 41f 40f
6:50am 10ft 8s 7s 16 18 mph 1000.7mb 41f 38f
5:50am 9ft 8s 7s 18 25 mph 1000.8mb 41f 41f
4:50am 8.5ft 7s 6s 20 22 mph 1000.9mb 41f 41f
3:50am 8ft 7s 6s 20 25 mph 1001mb 41f 41f
2:50am 9ft 8s 6s 18 20 mph 1001.2mb 41f 42f
1:50am 8ft 6s 6s 20 27 mph 1001.7mb 41f 41f
12:50am 8ft 7s 6s 27 34 mph 1002.4mb 41f 40f
Tue 03/31 11:50pm 7ft 6s 6s 27 34 mph 1003.9mb 41f 39f
10:50pm 7ft 8s 6s 25 29 mph 1005.1mb 41f 39f
9:50pm 7ft 8s 6s 20 27 mph 1006.4mb 41f 39f
8:50pm 7.5ft 9s 6s 22 27 mph 1007.3mb 41f 39f
7:50pm 8ft 9s 6s 18 22 mph 1007.6mb 41f 40f
6:50pm 8ft 8s 7s 18 20 mph 1007.8mb 41f 39f
5:50pm 8ft 9s 6s 16 20 mph 1008mb 41f 39f
4:50pm 8ft 9s 7s 18 22 mph 1008mb 41f 38f
3:50pm 8ft 9s 7s 18 25 mph 1008mb 41f 39f
2:50pm 7ft 9s 7s 20 27 mph 1008mb 41f 38f
1:50pm 7.5ft 10s 7s 16 20 mph 1008.2mb 41f 37f
12:50pm 7.5ft 8s 7s 22 29 mph 1007.9mb 41f 37f
11:50am 7ft 9s 6s 18 22 mph 1007.9mb 41f 38f
10:50am 7ft 8s 6s 22 29 mph 1007.6mb 41f 37f
9:50am 8.5ft 8s 6s 20 22 mph 1007.2mb 41f 38f
8:50am 10ft 9s 7s 20 25 mph 1007.1mb 41f 38f
7:50am 10ft 9s 7s 20 25 mph 1007mb 41f 39f
6:50am 10ft 10s 7s 22 27 mph 1006.7mb 41f 40f
5:50am 11ft 9s 7s 22 27 mph 1006.2mb 41f 40f
4:50am 10.5ft 8s 7s 22 27 mph 1005.5mb 41f 39f
3:50am 11ft 9s 7s 22 29 mph 1005mb 41f 40f
2:50am 11ft 11s 7s 25 31 mph 1004.5mb 41f 40f
1:50am 10.5ft 8s 7s 22 29 mph 1004mb 41f 40f
12:50am 10ft 11s 7s 25 31 mph 1003.5mb 41f 40f
Mon 03/30 11:50pm 9ft 9s 7s 25 29 mph 1003.1mb 41f 40f
10:50pm 9ft 11s 7s 25 29 mph 1002.4mb 41f 41f
9:50pm 8.5ft 11s 7s 20 25 mph 1001.8mb 41f 41f
8:50pm 8.5ft 11s 7s 20 25 mph 1001.1mb 41f 41f
7:50pm 9.5ft 12s 7s 20 25 mph 1000.4mb 41f 41f
6:50pm 10ft 11s 7s 20 25 mph 999.6mb 41f 41f
5:50pm 10.5ft 10s 8s 22 25 mph 998.8mb 41f 41f
4:50pm 10ft 11s 8s 20 25 mph 998mb 41f 41f
3:50pm 10ft 11s 9s 18 22 mph 997.6mb 41f 41f
2:50pm 10ft 12s 8s 11 16 mph 997.3mb 41f 39f
1:50pm 9ft 10s 8s 9 11 mph 996.8mb 41f 40f
12:50pm 9ft 13s 8s 13 18 mph 996.3mb 41f 40f
11:50am 9ft 13s 9s 11 13 mph 995.8mb 41f 40f
10:50am 10.5ft 10s 9s 9 11 mph 995.3mb 41f 40f
9:50am 10ft 10s 9s 9 11 mph 994.6mb 41f 40f
8:50am 10.5ft 12s 8s 7 11 mph 993.9mb 41f 40f
7:50am 12ft 10s 9s 4 9 mph 993.3mb 41f 40f
6:50am 12ft 11s 9s 4 9 mph 992.7mb 41f 38f
5:50am 12ft 13s 9s 4 7 mph 992mb 41f 39f
4:50am 12ft 11s 9s 7 9 mph 991.2mb 41f 40f
3:50am 11ft 12s 9s  -  2 mph 990.6mb 41f 40f
2:50am 11ft 14s 9s  -  2 mph 990.2mb 41f 40f
1:50am 10ft 13s 9s 4 7 mph 989.9mb 41f 40f
12:50am 9.5ft 14s 8s 4 7 mph 989.7mb 41f 40f
Sun 03/29 11:50pm 10ft 14s 8s 7 9 mph 989.5mb 41f 40f
10:50pm 11ft 12s 8s 9 13 mph 989.3mb 41f 40f
9:50pm 12ft 13s 8s 11 13 mph 989.2mb 41f 40f
8:50pm 12ft 13s 8s 11 13 mph 989mb 41f 40f
7:50pm 12ft 14s 9s 11 13 mph 988.9mb 41f 40f
6:50pm 12.5ft 14s 9s 16 20 mph 988.7mb 41f 40f
5:50pm 12ft 11s 8s 16 18 mph 988.6mb 41f 40f
4:50pm 11ft 13s 8s 16 20 mph 988.4mb 41f 40f
3:50pm 10ft 11s 8s 16 20 mph 988.2mb 41f 38f
2:50pm 10ft 11s 8s 16 20 mph 987.9mb 41f 40f
1:50pm 10ft 12s 7s 18 22 mph 987.9mb 40f 40f
12:50pm 9.5ft 11s 7s 18 20 mph 987.9mb 40f 39f
11:50am 10.5ft 11s 7s 22 27 mph 987.6mb 40f 40f
10:50am 10.5ft 11s 7s 20 25 mph 987.5mb 40f 40f